FYWH/WDH METAR and TAF weather

Enter ICAO airport designator
Station Type Date Time Source
FYWH METAR 2020/12/04 08:00 UTC NOAA

FYWH 040800Z 06004KT CAVOK 25/08 Q1021 NOSIG


Station Type Date Time Source
FYWH Decoded METAR 2020/12/04 08:00 UTC NOAA

J. G. Strijdom, Namibia (FYWH) 22-29S 017-28E 1700M
Dec 04, 2020 - 03:00 AM EST / 2020.12.04 0800 UTC
Wind: from the ENE (060 degrees) at 5 MPH (4 KT):0
Visibility: greater than 7 mile(s):0
Temperature: 77 F (25 C)
Dew Point: 46 F (8 C)
Relative Humidity: 33%
Pressure (altimeter): 30.15 in. Hg (1021 hPa)
ob: FYWH 040800Z 06004KT CAVOK 25/08 Q1021 NOSIG
cycle: 8

Station Type Date Time Source
FYWH TAF 2020/12/05 18:04 UTC NOAA

TAF FYWH 051600Z 0518/0618 04006KT CAVOK
BECMG 0520/0522 24006KT

Example: see airport list